TOM888 EGGD-ESNU
Flight info
| Callsign | TOM888 |
|---|---|
| Flight time | 2h 37m |
| Altitude | 35000 |
| Route | HAWFA DCT NUCHU Q295 BPK UM185 DIGSU N866 BANEM M604 GIVPO DCT TOPPA DCT SUTEB DCT OKMAM P850 DANKO M604 SVA M609 RIPAM DCT ROGED DCT ETOMI DCT LENSO |
| Aircraft | B738/M-SDE2E3FGHIRWXY/LB1 |
Departure
| Time | 2026-05-07 08:12 |
|---|---|
| Airport | Bristol Airport (EGGD) |
Arrival
| Time | 2026-05-07 10:49 |
|---|---|
| Airport | Umeå Airport (ESNU) |
| Time | Latitude | Longitude | Altitude | Speed | Heading |
|---|---|---|---|---|---|
| 2026-05-07 07:07 | 51.38549 | -2.71081 | 618 ft | 0 kts | 356° |
| 2026-05-07 08:04 | 51.38543 | -2.71080 | 612 ft | 4 kts | 356° |
| 2026-05-07 08:05 | 51.38516 | -2.71078 | 613 ft | 4 kts | 356° |
| 2026-05-07 08:05 | 51.38491 | -2.71075 | 614 ft | 2 kts | 356° |
| 2026-05-07 08:05 | 51.38469 | -2.71068 | 620 ft | 4 kts | 316° |
| 2026-05-07 08:05 | 51.38459 | -2.71034 | 629 ft | 4 kts | 269° |
| 2026-05-07 08:06 | 51.38461 | -2.70994 | 619 ft | 3 kts | 266° |
| 2026-05-07 08:06 | 51.38461 | -2.70991 | 618 ft | 2 kts | 266° |
| 2026-05-07 08:08 | 51.38460 | -2.71000 | 621 ft | 2 kts | 266° |
| 2026-05-07 08:08 | 51.38459 | -2.71057 | 621 ft | 9 kts | 268° |
| 2026-05-07 08:09 | 51.38454 | -2.71199 | 621 ft | 17 kts | 266° |
| 2026-05-07 08:09 | 51.38444 | -2.71438 | 620 ft | 28 kts | 266° |
| 2026-05-07 08:09 | 51.38431 | -2.71779 | 605 ft | 32 kts | 266° |
| 2026-05-07 08:09 | 51.38427 | -2.72120 | 619 ft | 29 kts | 266° |
| 2026-05-07 08:10 | 51.38414 | -2.72438 | 614 ft | 28 kts | 267° |
| 2026-05-07 08:10 | 51.38404 | -2.72737 | 622 ft | 26 kts | 266° |
| 2026-05-07 08:10 | 51.38392 | -2.73017 | 614 ft | 24 kts | 266° |
| 2026-05-07 08:10 | 51.38384 | -2.73210 | 614 ft | 7 kts | 265° |
| 2026-05-07 08:11 | 51.38384 | -2.73217 | 614 ft | 7 kts | 264° |
| 2026-05-07 08:11 | 51.38361 | -2.73302 | 616 ft | 12 kts | 227° |
| 2026-05-07 08:11 | 51.38253 | -2.73334 | 627 ft | 18 kts | 173° |
| 2026-05-07 08:11 | 51.38216 | -2.73230 | 626 ft | 4 kts | 84° |
| 2026-05-07 08:12 | 51.38221 | -2.73106 | 627 ft | 41 kts | 86° |
| 2026-05-07 08:12 | 51.38256 | -2.72185 | 629 ft | 123 kts | 86° |
| 2026-05-07 08:12 | 51.38324 | -2.70482 | 870 ft | 168 kts | 87° |
| 2026-05-07 08:12 | 51.38385 | -2.68645 | 1963 ft | 168 kts | 90° |
| 2026-05-07 08:13 | 51.38443 | -2.66692 | 2663 ft | 190 kts | 90° |
| 2026-05-07 08:13 | 51.38505 | -2.64425 | 2967 ft | 218 kts | 89° |
| 2026-05-07 08:13 | 51.38580 | -2.61931 | 3398 ft | 234 kts | 89° |
| 2026-05-07 08:13 | 51.38664 | -2.59208 | 3765 ft | 255 kts | 89° |
| 2026-05-07 08:14 | 51.38884 | -2.56339 | 4472 ft | 267 kts | 71° |
| 2026-05-07 08:14 | 51.40009 | -2.53990 | 5413 ft | 273 kts | 36° |
| 2026-05-07 08:14 | 51.41678 | -2.52505 | 5862 ft | 275 kts | 26° |
| 2026-05-07 08:14 | 51.43394 | -2.51119 | 6007 ft | 280 kts | 27° |
| 2026-05-07 08:15 | 51.45120 | -2.49665 | 5998 ft | 279 kts | 29° |
| 2026-05-07 08:15 | 51.46225 | -2.48628 | 6007 ft | 277 kts | 31° |
| 2026-05-07 08:15 | 51.48394 | -2.46475 | 6082 ft | 280 kts | 32° |
| 2026-05-07 08:15 | 51.50053 | -2.44800 | 6762 ft | 283 kts | 34° |
| 2026-05-07 08:16 | 51.51405 | -2.42554 | 7690 ft | 282 kts | 63° |
| 2026-05-07 08:16 | 51.51945 | -2.39571 | 8601 ft | 280 kts | 88° |
| 2026-05-07 08:16 | 51.51853 | -2.36431 | 9417 ft | 284 kts | 97° |
| 2026-05-07 08:16 | 51.51633 | -2.33259 | 10261 ft | 287 kts | 98° |
| 2026-05-07 08:17 | 51.51472 | -2.31120 | 10585 ft | 299 kts | 98° |
| 2026-05-07 08:17 | 51.51209 | -2.27660 | 10776 ft | 324 kts | 98° |
| 2026-05-07 08:17 | 51.50930 | -2.23931 | 10973 ft | 348 kts | 98° |
| 2026-05-07 08:17 | 51.50549 | -2.18683 | 11621 ft | 364 kts | 97° |
| 2026-05-07 08:18 | 51.50261 | -2.14626 | 12375 ft | 367 kts | 97° |
| 2026-05-07 08:18 | 51.50067 | -2.11871 | 12909 ft | 369 kts | 97° |
| 2026-05-07 08:18 | 51.49782 | -2.07812 | 13660 ft | 373 kts | 97° |
| 2026-05-07 08:18 | 51.49489 | -2.03651 | 14321 ft | 377 kts | 97° |
| 2026-05-07 08:19 | 51.49192 | -1.99443 | 14969 ft | 382 kts | 97° |
| 2026-05-07 08:19 | 51.48890 | -1.95190 | 15616 ft | 386 kts | 97° |
| 2026-05-07 08:19 | 51.48583 | -1.90892 | 16263 ft | 390 kts | 97° |
| 2026-05-07 08:19 | 51.48272 | -1.86553 | 16927 ft | 394 kts | 97° |
| 2026-05-07 08:20 | 51.47851 | -1.80718 | 17794 ft | 400 kts | 97° |
| 2026-05-07 08:20 | 51.47633 | -1.77712 | 18239 ft | 403 kts | 97° |
| 2026-05-07 08:20 | 51.47305 | -1.73222 | 18809 ft | 407 kts | 97° |
| 2026-05-07 08:20 | 51.47038 | -1.68744 | 19395 ft | 411 kts | 92° |
| 2026-05-07 08:21 | 51.47203 | -1.64156 | 19951 ft | 414 kts | 81° |
| 2026-05-07 08:21 | 51.47725 | -1.59602 | 20513 ft | 417 kts | 79° |
| 2026-05-07 08:21 | 51.48285 | -1.55021 | 21033 ft | 420 kts | 79° |
| 2026-05-07 08:21 | 51.48845 | -1.50399 | 21547 ft | 424 kts | 79° |
| 2026-05-07 08:22 | 51.49396 | -1.45737 | 22047 ft | 427 kts | 80° |
| 2026-05-07 08:22 | 51.49937 | -1.41039 | 22574 ft | 429 kts | 80° |
| 2026-05-07 08:22 | 51.50472 | -1.36307 | 23070 ft | 432 kts | 80° |
| 2026-05-07 08:22 | 51.51006 | -1.31543 | 23557 ft | 435 kts | 80° |
| 2026-05-07 08:23 | 51.51535 | -1.26807 | 23966 ft | 438 kts | 80° |
| 2026-05-07 08:23 | 51.52072 | -1.21974 | 24385 ft | 441 kts | 80° |
| 2026-05-07 08:23 | 51.52618 | -1.17122 | 24811 ft | 443 kts | 79° |
| 2026-05-07 08:23 | 51.53402 | -1.12333 | 25189 ft | 445 kts | 72° |
| 2026-05-07 08:24 | 51.54410 | -1.07620 | 25601 ft | 447 kts | 71° |
| 2026-05-07 08:24 | 51.55469 | -1.02910 | 25982 ft | 449 kts | 70° |
| 2026-05-07 08:24 | 51.56538 | -0.98178 | 26378 ft | 451 kts | 70° |
| 2026-05-07 08:24 | 51.57598 | -0.93425 | 26780 ft | 452 kts | 71° |
| 2026-05-07 08:25 | 51.58640 | -0.88666 | 27253 ft | 451 kts | 71° |
| 2026-05-07 08:25 | 51.59655 | -0.83962 | 27630 ft | 452 kts | 71° |
| 2026-05-07 08:25 | 51.60682 | -0.79161 | 27942 ft | 455 kts | 71° |
| 2026-05-07 08:25 | 51.61707 | -0.74335 | 28260 ft | 457 kts | 71° |
| 2026-05-07 08:26 | 51.63761 | -0.64621 | 29036 ft | 458 kts | 71° |
| 2026-05-07 08:26 | 51.64782 | -0.59780 | 29569 ft | 455 kts | 71° |
| 2026-05-07 08:26 | 51.65793 | -0.54975 | 30098 ft | 452 kts | 71° |
| 2026-05-07 08:27 | 51.66800 | -0.50179 | 30462 ft | 452 kts | 71° |
| 2026-05-07 08:27 | 51.67804 | -0.45384 | 30774 ft | 452 kts | 71° |
| 2026-05-07 08:27 | 51.68808 | -0.40585 | 31100 ft | 452 kts | 71° |
| 2026-05-07 08:27 | 51.69810 | -0.35780 | 31476 ft | 451 kts | 71° |
| 2026-05-07 08:28 | 51.70805 | -0.30993 | 31837 ft | 450 kts | 71° |
| 2026-05-07 08:28 | 51.71798 | -0.26211 | 32177 ft | 450 kts | 71° |
| 2026-05-07 08:28 | 51.72788 | -0.21434 | 32495 ft | 450 kts | 71° |
| 2026-05-07 08:28 | 51.73776 | -0.16650 | 32826 ft | 449 kts | 72° |
| 2026-05-07 08:29 | 51.74782 | -0.11886 | 33171 ft | 448 kts | 69° |
| 2026-05-07 08:29 | 51.76117 | -0.07346 | 33476 ft | 448 kts | 60° |
| 2026-05-07 08:29 | 51.77704 | -0.03100 | 33818 ft | 447 kts | 58° |
| 2026-05-07 08:29 | 51.79342 | 0.01177 | 34118 ft | 448 kts | 58° |
| 2026-05-07 08:30 | 51.80987 | 0.05471 | 34258 ft | 451 kts | 58° |
| 2026-05-07 08:30 | 51.82615 | 0.09762 | 34728 ft | 444 kts | 59° |
| 2026-05-07 08:30 | 51.84215 | 0.14022 | 35049 ft | 443 kts | 59° |
| 2026-05-07 08:30 | 51.85811 | 0.18306 | 35101 ft | 447 kts | 59° |
| 2026-05-07 08:31 | 51.89005 | 0.26941 | 35107 ft | 452 kts | 59° |
| 2026-05-07 08:31 | 51.92228 | 0.35696 | 35104 ft | 453 kts | 59° |
| 2026-05-07 08:32 | 51.95450 | 0.44470 | 35106 ft | 453 kts | 59° |
| 2026-05-07 08:32 | 51.98662 | 0.53245 | 35079 ft | 452 kts | 59° |
| 2026-05-07 08:33 | 52.01865 | 0.62022 | 35087 ft | 451 kts | 59° |
| 2026-05-07 08:33 | 52.05031 | 0.70718 | 35084 ft | 450 kts | 59° |
| 2026-05-07 08:34 | 52.08204 | 0.79454 | 35075 ft | 448 kts | 59° |
| 2026-05-07 08:34 | 52.11358 | 0.88166 | 35078 ft | 446 kts | 60° |
| 2026-05-07 08:35 | 52.14493 | 0.96857 | 35073 ft | 445 kts | 60° |
| 2026-05-07 08:35 | 52.17592 | 1.05481 | 35069 ft | 444 kts | 59° |
| 2026-05-07 08:36 | 52.20701 | 1.14160 | 35073 ft | 443 kts | 60° |
| 2026-05-07 08:36 | 52.23799 | 1.22839 | 35079 ft | 443 kts | 60° |
| 2026-05-07 08:37 | 52.26891 | 1.31532 | 35082 ft | 443 kts | 60° |
| 2026-05-07 08:37 | 52.29960 | 1.40186 | 35098 ft | 443 kts | 60° |
| 2026-05-07 08:38 | 52.33063 | 1.48896 | 35092 ft | 444 kts | 57° |
| 2026-05-07 08:38 | 52.37047 | 1.56558 | 35102 ft | 443 kts | 45° |
| 2026-05-07 08:39 | 52.41399 | 1.63722 | 35095 ft | 444 kts | 45° |
| 2026-05-07 08:39 | 52.45691 | 1.70899 | 35100 ft | 444 kts | 46° |
| 2026-05-07 08:40 | 52.49989 | 1.78187 | 35098 ft | 444 kts | 46° |
| 2026-05-07 08:40 | 52.54258 | 1.85458 | 35098 ft | 444 kts | 46° |
| 2026-05-07 08:41 | 52.58493 | 1.92683 | 35086 ft | 444 kts | 46° |
| 2026-05-07 08:41 | 52.62525 | 1.99562 | 35091 ft | 443 kts | 46° |
| 2026-05-07 08:42 | 52.66237 | 2.05909 | 35089 ft | 443 kts | 46° |
| 2026-05-07 08:42 | 52.70002 | 2.12369 | 35095 ft | 443 kts | 46° |
| 2026-05-07 08:43 | 52.73834 | 2.18960 | 35090 ft | 442 kts | 46° |
| 2026-05-07 08:43 | 52.77537 | 2.25347 | 35098 ft | 442 kts | 46° |
| 2026-05-07 08:44 | 52.81384 | 2.32000 | 35093 ft | 441 kts | 46° |
| 2026-05-07 08:44 | 52.85469 | 2.39084 | 35103 ft | 441 kts | 46° |
| 2026-05-07 08:45 | 52.89488 | 2.46073 | 35098 ft | 440 kts | 46° |
| 2026-05-07 08:45 | 52.93546 | 2.53150 | 35097 ft | 440 kts | 46° |
| 2026-05-07 08:46 | 52.97600 | 2.60076 | 35084 ft | 440 kts | 41° |
| 2026-05-07 08:46 | 53.02594 | 2.65505 | 35099 ft | 440 kts | 26° |
| 2026-05-07 08:47 | 53.07985 | 2.69834 | 35090 ft | 440 kts | 26° |
| 2026-05-07 08:47 | 53.13438 | 2.74269 | 35104 ft | 440 kts | 26° |
| 2026-05-07 08:48 | 53.18821 | 2.78735 | 35095 ft | 441 kts | 27° |
| 2026-05-07 08:48 | 53.24209 | 2.83229 | 35101 ft | 441 kts | 27° |
| 2026-05-07 08:49 | 53.26720 | 2.85984 | 35081 ft | 440 kts | 43° |
| 2026-05-07 08:49 | 53.28690 | 2.89846 | 35114 ft | 440 kts | 57° |
| 2026-05-07 08:49 | 53.30024 | 2.94354 | 35095 ft | 441 kts | 71° |
| 2026-05-07 08:49 | 53.30891 | 2.99274 | 35107 ft | 442 kts | 74° |
| 2026-05-07 08:50 | 53.32466 | 3.09128 | 35108 ft | 443 kts | 74° |
| 2026-05-07 08:50 | 53.34097 | 3.19080 | 35105 ft | 444 kts | 73° |
| 2026-05-07 08:51 | 53.35772 | 3.29028 | 35116 ft | 445 kts | 73° |
| 2026-05-07 08:51 | 53.37453 | 3.39009 | 35112 ft | 445 kts | 73° |
| 2026-05-07 08:52 | 53.39121 | 3.48929 | 35107 ft | 445 kts | 71° |
| 2026-05-07 08:52 | 53.40369 | 3.53637 | 35111 ft | 443 kts | 57° |
| 2026-05-07 08:52 | 53.42221 | 3.57731 | 35115 ft | 442 kts | 46° |
| 2026-05-07 08:53 | 53.44532 | 3.61091 | 35116 ft | 442 kts | 34° |
| 2026-05-07 08:53 | 53.47062 | 3.63903 | 35120 ft | 442 kts | 33° |
| 2026-05-07 08:53 | 53.52124 | 3.69406 | 35103 ft | 442 kts | 33° |
| 2026-05-07 08:54 | 53.57094 | 3.74867 | 35098 ft | 442 kts | 33° |
| 2026-05-07 08:54 | 53.62096 | 3.80445 | 35099 ft | 442 kts | 33° |
| 2026-05-07 08:55 | 53.67104 | 3.86076 | 35105 ft | 442 kts | 33° |
| 2026-05-07 08:55 | 53.72092 | 3.91708 | 35103 ft | 442 kts | 33° |
| 2026-05-07 08:56 | 53.77172 | 3.97460 | 35101 ft | 442 kts | 33° |
| 2026-05-07 08:56 | 53.82278 | 4.03256 | 35103 ft | 442 kts | 33° |
| 2026-05-07 08:57 | 53.87367 | 4.09050 | 35107 ft | 442 kts | 33° |
| 2026-05-07 08:57 | 53.92462 | 4.14868 | 35097 ft | 442 kts | 34° |
| 2026-05-07 08:58 | 53.97518 | 4.20658 | 35099 ft | 442 kts | 34° |
| 2026-05-07 08:58 | 54.02596 | 4.26491 | 35099 ft | 442 kts | 33° |
| 2026-05-07 08:59 | 54.07681 | 4.32350 | 35098 ft | 442 kts | 34° |
| 2026-05-07 08:59 | 54.12769 | 4.38230 | 35092 ft | 442 kts | 34° |
| 2026-05-07 09:00 | 54.17817 | 4.44081 | 35107 ft | 442 kts | 33° |
| 2026-05-07 09:00 | 54.22898 | 4.49989 | 35098 ft | 442 kts | 34° |
| 2026-05-07 09:01 | 54.27964 | 4.55896 | 35110 ft | 442 kts | 34° |
| 2026-05-07 09:01 | 54.33044 | 4.61839 | 35103 ft | 442 kts | 34° |
| 2026-05-07 09:02 | 54.38087 | 4.67756 | 35109 ft | 442 kts | 34° |
| 2026-05-07 09:02 | 54.43163 | 4.73729 | 35104 ft | 442 kts | 33° |
| 2026-05-07 09:03 | 54.48228 | 4.79709 | 35098 ft | 443 kts | 33° |
| 2026-05-07 09:03 | 54.53181 | 4.85574 | 35102 ft | 443 kts | 33° |
| 2026-05-07 09:04 | 54.58221 | 4.91560 | 35098 ft | 443 kts | 33° |
| 2026-05-07 09:04 | 54.63264 | 4.97567 | 35104 ft | 443 kts | 34° |
| 2026-05-07 09:05 | 54.68277 | 5.03557 | 35095 ft | 443 kts | 33° |
| 2026-05-07 09:05 | 54.73186 | 5.09442 | 35099 ft | 444 kts | 33° |
| 2026-05-07 09:06 | 54.78121 | 5.15374 | 35105 ft | 444 kts | 34° |
| 2026-05-07 09:06 | 54.83169 | 5.21462 | 35098 ft | 445 kts | 34° |
| 2026-05-07 09:07 | 54.88187 | 5.27532 | 35107 ft | 445 kts | 34° |
| 2026-05-07 09:07 | 54.93145 | 5.33548 | 35094 ft | 446 kts | 34° |
| 2026-05-07 09:08 | 54.98113 | 5.39588 | 35108 ft | 446 kts | 33° |
| 2026-05-07 09:08 | 55.03612 | 5.44278 | 35114 ft | 445 kts | 18° |
| 2026-05-07 09:09 | 55.09231 | 5.47527 | 35108 ft | 446 kts | 17° |
| 2026-05-07 09:09 | 55.14364 | 5.50478 | 35120 ft | 446 kts | 17° |
| 2026-05-07 09:10 | 55.19665 | 5.53588 | 35099 ft | 447 kts | 17° |
| 2026-05-07 09:10 | 55.25552 | 5.57096 | 35104 ft | 447 kts | 18° |
| 2026-05-07 09:11 | 55.30959 | 5.60341 | 35106 ft | 447 kts | 18° |
| 2026-05-07 09:11 | 55.36830 | 5.63876 | 35107 ft | 447 kts | 18° |
| 2026-05-07 09:12 | 55.42629 | 5.67378 | 35105 ft | 447 kts | 17° |
| 2026-05-07 09:12 | 55.48497 | 5.70930 | 35111 ft | 448 kts | 17° |
| 2026-05-07 09:13 | 55.54382 | 5.74505 | 35109 ft | 448 kts | 17° |
| 2026-05-07 09:13 | 55.60031 | 5.77947 | 35110 ft | 448 kts | 17° |
| 2026-05-07 09:14 | 55.65919 | 5.81546 | 35123 ft | 448 kts | 17° |
| 2026-05-07 09:14 | 55.71769 | 5.85133 | 35107 ft | 449 kts | 17° |
| 2026-05-07 09:15 | 55.77656 | 5.88753 | 35106 ft | 449 kts | 17° |
| 2026-05-07 09:15 | 55.83559 | 5.92396 | 35106 ft | 449 kts | 17° |
| 2026-05-07 09:16 | 55.89409 | 5.96017 | 35106 ft | 449 kts | 17° |
| 2026-05-07 09:16 | 55.95306 | 5.99679 | 35106 ft | 449 kts | 17° |
| 2026-05-07 09:17 | 56.01198 | 6.03350 | 35106 ft | 449 kts | 17° |
| 2026-05-07 09:17 | 56.07100 | 6.07039 | 35106 ft | 449 kts | 17° |
| 2026-05-07 09:18 | 56.12995 | 6.10736 | 35106 ft | 449 kts | 17° |
| 2026-05-07 09:18 | 56.18849 | 6.14420 | 35110 ft | 449 kts | 17° |
| 2026-05-07 09:19 | 56.24753 | 6.18146 | 35108 ft | 449 kts | 17° |
| 2026-05-07 09:19 | 56.30647 | 6.21878 | 35105 ft | 449 kts | 17° |
| 2026-05-07 09:20 | 56.36543 | 6.25624 | 35105 ft | 449 kts | 17° |
| 2026-05-07 09:20 | 56.42396 | 6.29355 | 35125 ft | 449 kts | 17° |
| 2026-05-07 09:21 | 56.48284 | 6.33121 | 35111 ft | 450 kts | 16° |
| 2026-05-07 09:21 | 56.54189 | 6.36909 | 35110 ft | 451 kts | 16° |
| 2026-05-07 09:22 | 56.60101 | 6.40715 | 35108 ft | 451 kts | 17° |
| 2026-05-07 09:22 | 56.65972 | 6.44508 | 35103 ft | 451 kts | 17° |
| 2026-05-07 09:23 | 56.71887 | 6.48341 | 35113 ft | 451 kts | 16° |
| 2026-05-07 09:23 | 56.77804 | 6.52189 | 35109 ft | 452 kts | 16° |
| 2026-05-07 09:24 | 56.83718 | 6.56047 | 35107 ft | 452 kts | 16° |
| 2026-05-07 09:24 | 56.89637 | 6.59949 | 35105 ft | 452 kts | 18° |
| 2026-05-07 09:25 | 56.95250 | 6.65103 | 35122 ft | 456 kts | 25° |
| 2026-05-07 09:25 | 57.00839 | 6.70625 | 35113 ft | 456 kts | 25° |
| 2026-05-07 09:26 | 57.06346 | 6.76447 | 35106 ft | 458 kts | 27° |
| 2026-05-07 09:26 | 57.11810 | 6.82486 | 35106 ft | 458 kts | 27° |
| 2026-05-07 09:27 | 57.17247 | 6.88456 | 35109 ft | 458 kts | 27° |
| 2026-05-07 09:28 | 57.25479 | 6.97444 | 35111 ft | 459 kts | 26° |
| 2026-05-07 09:28 | 57.30973 | 7.03460 | 35106 ft | 459 kts | 26° |
| 2026-05-07 09:29 | 57.36468 | 7.09502 | 35112 ft | 459 kts | 26° |
| 2026-05-07 09:29 | 57.41924 | 7.15523 | 35107 ft | 460 kts | 26° |
| 2026-05-07 09:30 | 57.47421 | 7.21609 | 35115 ft | 460 kts | 26° |
| 2026-05-07 09:30 | 57.52924 | 7.27731 | 35110 ft | 461 kts | 26° |
| 2026-05-07 09:31 | 57.58420 | 7.33878 | 35110 ft | 461 kts | 26° |
| 2026-05-07 09:31 | 57.63883 | 7.40010 | 35112 ft | 461 kts | 26° |
| 2026-05-07 09:32 | 57.69378 | 7.46200 | 35112 ft | 461 kts | 26° |
| 2026-05-07 09:32 | 57.74877 | 7.52416 | 35117 ft | 462 kts | 26° |
| 2026-05-07 09:33 | 57.80376 | 7.58654 | 35113 ft | 462 kts | 26° |
| 2026-05-07 09:33 | 57.85842 | 7.64876 | 35110 ft | 463 kts | 26° |
| 2026-05-07 09:34 | 57.91341 | 7.71159 | 35107 ft | 463 kts | 26° |
| 2026-05-07 09:34 | 57.96839 | 7.77464 | 35135 ft | 463 kts | 26° |
| 2026-05-07 09:35 | 58.02339 | 7.83795 | 35104 ft | 463 kts | 26° |
| 2026-05-07 09:35 | 58.07842 | 7.90152 | 35103 ft | 464 kts | 26° |
| 2026-05-07 09:36 | 58.13091 | 7.97217 | 35100 ft | 468 kts | 33° |
| 2026-05-07 09:36 | 58.18219 | 8.04858 | 35105 ft | 469 kts | 33° |
| 2026-05-07 09:37 | 58.23350 | 8.12490 | 35126 ft | 469 kts | 33° |
| 2026-05-07 09:37 | 58.28520 | 8.20093 | 35112 ft | 470 kts | 32° |
| 2026-05-07 09:38 | 58.33698 | 8.27695 | 35109 ft | 470 kts | 32° |
| 2026-05-07 09:38 | 58.38838 | 8.35268 | 35102 ft | 470 kts | 32° |
| 2026-05-07 09:39 | 58.44008 | 8.42920 | 35102 ft | 470 kts | 33° |
| 2026-05-07 09:39 | 58.48143 | 8.49062 | 35098 ft | 471 kts | 33° |
| 2026-05-07 09:40 | 58.53306 | 8.56759 | 35096 ft | 470 kts | 33° |
| 2026-05-07 09:40 | 58.58424 | 8.64418 | 35096 ft | 470 kts | 33° |
| 2026-05-07 09:41 | 58.63575 | 8.72152 | 35102 ft | 470 kts | 33° |
| 2026-05-07 09:41 | 58.68718 | 8.79905 | 35101 ft | 470 kts | 33° |
| 2026-05-07 09:42 | 58.73854 | 8.87680 | 35126 ft | 470 kts | 33° |
| 2026-05-07 09:42 | 58.78960 | 8.95439 | 35111 ft | 471 kts | 33° |
| 2026-05-07 09:43 | 58.84104 | 9.03282 | 35099 ft | 471 kts | 33° |
| 2026-05-07 09:43 | 58.84526 | 9.03928 | 35101 ft | 471 kts | 33° |
| 2026-05-07 09:44 | 58.89499 | 9.11542 | 35099 ft | 472 kts | 33° |
| 2026-05-07 09:44 | 58.94610 | 9.19397 | 35101 ft | 472 kts | 33° |
| 2026-05-07 09:45 | 58.99753 | 9.27332 | 35134 ft | 473 kts | 33° |
| 2026-05-07 09:45 | 59.04908 | 9.35317 | 35101 ft | 474 kts | 33° |
| 2026-05-07 09:46 | 59.10065 | 9.43339 | 35095 ft | 475 kts | 33° |
| 2026-05-07 09:46 | 59.15222 | 9.51389 | 35093 ft | 475 kts | 33° |
| 2026-05-07 09:47 | 59.20396 | 9.59236 | 35088 ft | 472 kts | 29° |
| 2026-05-07 09:47 | 59.25897 | 9.66179 | 35123 ft | 471 kts | 26° |
| 2026-05-07 09:48 | 59.31397 | 9.73198 | 35092 ft | 474 kts | 30° |
| 2026-05-07 09:48 | 59.36212 | 9.82235 | 35092 ft | 485 kts | 44° |
| 2026-05-07 09:49 | 59.40532 | 9.92300 | 35074 ft | 486 kts | 45° |
| 2026-05-07 09:49 | 59.44869 | 10.02470 | 35081 ft | 485 kts | 45° |
| 2026-05-07 09:50 | 59.49238 | 10.12599 | 35070 ft | 486 kts | 44° |
| 2026-05-07 09:50 | 59.53627 | 10.22738 | 35086 ft | 487 kts | 44° |
| 2026-05-07 09:51 | 59.57991 | 10.32852 | 35085 ft | 488 kts | 44° |
| 2026-05-07 09:51 | 59.62381 | 10.43077 | 35085 ft | 489 kts | 44° |
| 2026-05-07 09:52 | 59.66772 | 10.53355 | 35072 ft | 489 kts | 44° |
| 2026-05-07 09:52 | 59.71159 | 10.63671 | 35078 ft | 490 kts | 45° |
| 2026-05-07 09:53 | 59.75540 | 10.74020 | 35091 ft | 491 kts | 44° |
| 2026-05-07 09:53 | 59.79901 | 10.84364 | 35088 ft | 492 kts | 44° |
| 2026-05-07 09:54 | 59.84292 | 10.94828 | 35075 ft | 493 kts | 45° |
| 2026-05-07 09:54 | 59.88679 | 11.05331 | 35082 ft | 494 kts | 45° |
| 2026-05-07 09:55 | 59.93065 | 11.15879 | 35076 ft | 494 kts | 45° |
| 2026-05-07 09:55 | 59.97416 | 11.26393 | 35078 ft | 495 kts | 45° |
| 2026-05-07 09:56 | 60.01794 | 11.37016 | 35080 ft | 496 kts | 45° |
| 2026-05-07 09:56 | 60.06166 | 11.47677 | 35071 ft | 495 kts | 45° |
| 2026-05-07 09:57 | 60.10520 | 11.58345 | 35064 ft | 494 kts | 45° |
| 2026-05-07 09:57 | 60.14853 | 11.69009 | 35068 ft | 493 kts | 45° |
| 2026-05-07 09:58 | 60.19141 | 11.79609 | 35066 ft | 492 kts | 45° |
| 2026-05-07 09:58 | 60.23440 | 11.90285 | 35092 ft | 491 kts | 46° |
| 2026-05-07 09:59 | 60.27729 | 12.00982 | 35069 ft | 491 kts | 46° |
| 2026-05-07 09:59 | 60.32009 | 12.11711 | 35074 ft | 491 kts | 46° |
| 2026-05-07 10:00 | 60.36258 | 12.22408 | 35058 ft | 492 kts | 46° |
| 2026-05-07 10:00 | 60.40531 | 12.33221 | 35064 ft | 493 kts | 46° |
| 2026-05-07 10:01 | 60.44806 | 12.44088 | 35070 ft | 494 kts | 47° |
| 2026-05-07 10:01 | 60.49087 | 12.55018 | 35064 ft | 496 kts | 47° |
| 2026-05-07 10:02 | 60.53442 | 12.65758 | 35063 ft | 496 kts | 43° |
| 2026-05-07 10:02 | 60.58158 | 12.75956 | 35070 ft | 495 kts | 41° |
| 2026-05-07 10:03 | 60.62933 | 12.86066 | 35070 ft | 496 kts | 41° |
| 2026-05-07 10:03 | 60.67673 | 12.96314 | 35057 ft | 498 kts | 43° |
| 2026-05-07 10:04 | 60.72263 | 13.06938 | 35085 ft | 500 kts | 45° |
| 2026-05-07 10:04 | 60.76787 | 13.17757 | 35066 ft | 500 kts | 45° |
| 2026-05-07 10:05 | 60.81286 | 13.28508 | 35062 ft | 500 kts | 45° |
| 2026-05-07 10:05 | 60.85822 | 13.39319 | 35058 ft | 500 kts | 45° |
| 2026-05-07 10:06 | 60.90350 | 13.50129 | 35068 ft | 499 kts | 45° |
| 2026-05-07 10:06 | 60.94865 | 13.60957 | 35062 ft | 498 kts | 45° |
| 2026-05-07 10:07 | 60.99333 | 13.71725 | 35066 ft | 498 kts | 45° |
| 2026-05-07 10:07 | 61.03818 | 13.82590 | 35068 ft | 497 kts | 45° |
| 2026-05-07 10:08 | 61.08288 | 13.93472 | 35064 ft | 497 kts | 46° |
| 2026-05-07 10:08 | 61.12751 | 14.04388 | 35052 ft | 497 kts | 46° |
| 2026-05-07 10:09 | 61.17172 | 14.15252 | 35062 ft | 496 kts | 46° |
| 2026-05-07 10:09 | 61.21618 | 14.26229 | 35066 ft | 498 kts | 46° |
| 2026-05-07 10:10 | 61.26063 | 14.37259 | 35068 ft | 498 kts | 46° |
| 2026-05-07 10:10 | 61.30504 | 14.48332 | 35055 ft | 498 kts | 46° |
| 2026-05-07 10:11 | 61.34936 | 14.59436 | 35062 ft | 498 kts | 47° |
| 2026-05-07 10:11 | 61.39357 | 14.70569 | 35060 ft | 499 kts | 47° |
| 2026-05-07 10:12 | 61.43740 | 14.81658 | 35078 ft | 499 kts | 47° |
| 2026-05-07 10:12 | 61.48151 | 14.92871 | 35065 ft | 499 kts | 47° |
| 2026-05-07 10:13 | 61.52557 | 15.04131 | 35058 ft | 499 kts | 47° |
| 2026-05-07 10:13 | 61.56953 | 15.15418 | 35061 ft | 499 kts | 47° |
| 2026-05-07 10:14 | 61.61339 | 15.26738 | 35053 ft | 500 kts | 47° |
| 2026-05-07 10:14 | 61.65686 | 15.38011 | 35055 ft | 500 kts | 48° |
| 2026-05-07 10:15 | 61.70059 | 15.49407 | 35058 ft | 500 kts | 48° |
| 2026-05-07 10:15 | 61.74427 | 15.60846 | 35058 ft | 500 kts | 48° |
| 2026-05-07 10:16 | 61.78780 | 15.72307 | 35057 ft | 500 kts | 48° |
| 2026-05-07 10:16 | 61.83125 | 15.83802 | 35059 ft | 500 kts | 48° |
| 2026-05-07 10:17 | 61.87430 | 15.95250 | 35044 ft | 500 kts | 49° |
| 2026-05-07 10:17 | 61.91748 | 16.06792 | 35068 ft | 500 kts | 49° |
| 2026-05-07 10:18 | 61.96065 | 16.18386 | 35054 ft | 500 kts | 49° |
| 2026-05-07 10:18 | 62.00371 | 16.30012 | 35055 ft | 500 kts | 49° |
| 2026-05-07 10:19 | 62.04663 | 16.41660 | 35065 ft | 500 kts | 49° |
| 2026-05-07 10:19 | 62.08920 | 16.53272 | 35062 ft | 500 kts | 49° |
| 2026-05-07 10:20 | 62.13194 | 16.64988 | 35089 ft | 500 kts | 50° |
| 2026-05-07 10:20 | 62.17459 | 16.76741 | 35067 ft | 500 kts | 50° |
| 2026-05-07 10:21 | 62.21717 | 16.88536 | 35060 ft | 500 kts | 50° |
| 2026-05-07 10:21 | 62.25936 | 17.00282 | 35049 ft | 500 kts | 50° |
| 2026-05-07 10:22 | 62.30168 | 17.12125 | 35068 ft | 500 kts | 50° |
| 2026-05-07 10:22 | 62.34393 | 17.24012 | 35069 ft | 500 kts | 50° |
| 2026-05-07 10:23 | 62.38612 | 17.35942 | 35081 ft | 501 kts | 51° |
| 2026-05-07 10:23 | 62.42795 | 17.47834 | 35084 ft | 501 kts | 51° |
| 2026-05-07 10:24 | 62.46998 | 17.59846 | 35076 ft | 501 kts | 51° |
| 2026-05-07 10:24 | 62.51188 | 17.71883 | 35057 ft | 501 kts | 51° |
| 2026-05-07 10:24 | 62.53293 | 17.77953 | 34507 ft | 506 kts | 51° |
| 2026-05-07 10:25 | 62.55401 | 17.84048 | 33872 ft | 505 kts | 51° |
| 2026-05-07 10:25 | 62.57501 | 17.90139 | 33142 ft | 505 kts | 51° |
| 2026-05-07 10:25 | 62.59572 | 17.96161 | 32457 ft | 504 kts | 51° |
| 2026-05-07 10:25 | 62.61668 | 18.02269 | 31703 ft | 504 kts | 51° |
| 2026-05-07 10:26 | 62.63758 | 18.08380 | 30996 ft | 504 kts | 51° |
| 2026-05-07 10:26 | 62.65852 | 18.14518 | 30224 ft | 505 kts | 52° |
| 2026-05-07 10:26 | 62.67938 | 18.20649 | 29566 ft | 501 kts | 52° |
| 2026-05-07 10:26 | 62.69993 | 18.26709 | 28965 ft | 495 kts | 52° |
| 2026-05-07 10:27 | 62.72021 | 18.32703 | 28433 ft | 488 kts | 52° |
| 2026-05-07 10:27 | 62.74018 | 18.38623 | 27886 ft | 482 kts | 52° |
| 2026-05-07 10:27 | 62.75962 | 18.44399 | 27364 ft | 476 kts | 52° |
| 2026-05-07 10:27 | 62.77906 | 18.50186 | 26829 ft | 470 kts | 52° |
| 2026-05-07 10:28 | 62.79828 | 18.55924 | 26309 ft | 465 kts | 52° |
| 2026-05-07 10:28 | 62.81704 | 18.61536 | 25802 ft | 460 kts | 52° |
| 2026-05-07 10:28 | 62.83579 | 18.67161 | 25329 ft | 455 kts | 52° |
| 2026-05-07 10:28 | 62.85432 | 18.72732 | 24807 ft | 451 kts | 52° |
| 2026-05-07 10:29 | 62.87268 | 18.78267 | 24305 ft | 446 kts | 52° |
| 2026-05-07 10:29 | 62.89082 | 18.83747 | 23782 ft | 443 kts | 52° |
| 2026-05-07 10:29 | 62.90878 | 18.89188 | 23211 ft | 439 kts | 52° |
| 2026-05-07 10:30 | 62.94381 | 18.99837 | 22175 ft | 427 kts | 52° |
| 2026-05-07 10:30 | 62.96104 | 19.05092 | 21693 ft | 421 kts | 52° |
| 2026-05-07 10:30 | 62.97797 | 19.10271 | 21188 ft | 415 kts | 52° |
| 2026-05-07 10:30 | 62.99475 | 19.15411 | 20702 ft | 411 kts | 53° |
| 2026-05-07 10:31 | 63.01128 | 19.20490 | 20224 ft | 406 kts | 53° |
| 2026-05-07 10:31 | 63.02764 | 19.25524 | 19761 ft | 401 kts | 53° |
| 2026-05-07 10:31 | 63.04377 | 19.30499 | 19316 ft | 397 kts | 53° |
| 2026-05-07 10:31 | 63.05968 | 19.35418 | 18859 ft | 392 kts | 53° |
| 2026-05-07 10:32 | 63.07519 | 19.40225 | 18401 ft | 387 kts | 53° |
| 2026-05-07 10:32 | 63.09068 | 19.45034 | 17900 ft | 382 kts | 53° |
| 2026-05-07 10:32 | 63.10596 | 19.49788 | 17449 ft | 376 kts | 53° |
| 2026-05-07 10:32 | 63.12097 | 19.54469 | 16994 ft | 371 kts | 53° |
| 2026-05-07 10:33 | 63.13576 | 19.59090 | 16544 ft | 366 kts | 53° |
| 2026-05-07 10:33 | 63.15040 | 19.63672 | 16104 ft | 362 kts | 53° |
| 2026-05-07 10:33 | 63.16483 | 19.68199 | 15657 ft | 358 kts | 53° |
| 2026-05-07 10:33 | 63.17912 | 19.72689 | 15226 ft | 355 kts | 53° |
| 2026-05-07 10:34 | 63.19324 | 19.77138 | 14802 ft | 352 kts | 53° |
| 2026-05-07 10:34 | 63.20732 | 19.81575 | 14377 ft | 353 kts | 53° |
| 2026-05-07 10:34 | 63.22122 | 19.85967 | 13961 ft | 353 kts | 53° |
| 2026-05-07 10:34 | 63.23533 | 19.90435 | 13496 ft | 355 kts | 53° |
| 2026-05-07 10:35 | 63.25123 | 19.94590 | 12987 ft | 353 kts | 36° |
| 2026-05-07 10:35 | 63.27261 | 19.97045 | 12557 ft | 343 kts | 14° |
| 2026-05-07 10:35 | 63.29603 | 19.97750 | 12011 ft | 338 kts | 356° |
| 2026-05-07 10:35 | 63.31923 | 19.97269 | 11585 ft | 333 kts | 351° |
| 2026-05-07 10:36 | 63.34211 | 19.96616 | 11146 ft | 329 kts | 351° |
| 2026-05-07 10:36 | 63.36464 | 19.95939 | 10814 ft | 323 kts | 350° |
| 2026-05-07 10:36 | 63.38652 | 19.95288 | 10696 ft | 311 kts | 351° |
| 2026-05-07 10:36 | 63.40762 | 19.94672 | 10556 ft | 301 kts | 351° |
| 2026-05-07 10:37 | 63.42778 | 19.94095 | 10438 ft | 291 kts | 351° |
| 2026-05-07 10:37 | 63.44758 | 19.93535 | 10321 ft | 282 kts | 351° |
| 2026-05-07 10:37 | 63.46674 | 19.92998 | 10198 ft | 273 kts | 351° |
| 2026-05-07 10:37 | 63.48534 | 19.92478 | 10086 ft | 265 kts | 351° |
| 2026-05-07 10:38 | 63.50335 | 19.91976 | 9966 ft | 258 kts | 351° |
| 2026-05-07 10:38 | 63.52108 | 19.91481 | 9714 ft | 255 kts | 351° |
| 2026-05-07 10:38 | 63.53860 | 19.90992 | 9453 ft | 253 kts | 351° |
| 2026-05-07 10:38 | 63.55601 | 19.90506 | 9217 ft | 250 kts | 351° |
| 2026-05-07 10:39 | 63.57338 | 19.90020 | 8972 ft | 254 kts | 351° |
| 2026-05-07 10:39 | 63.59088 | 19.89530 | 8726 ft | 259 kts | 351° |
| 2026-05-07 10:39 | 63.60878 | 19.89029 | 8452 ft | 259 kts | 351° |
| 2026-05-07 10:39 | 63.62654 | 19.88533 | 8198 ft | 256 kts | 351° |
| 2026-05-07 10:40 | 63.64415 | 19.88042 | 7963 ft | 254 kts | 351° |
| 2026-05-07 10:40 | 63.66161 | 19.87552 | 7712 ft | 252 kts | 351° |
| 2026-05-07 10:40 | 63.67896 | 19.87067 | 7461 ft | 250 kts | 351° |
| 2026-05-07 10:40 | 63.69618 | 19.86584 | 7207 ft | 249 kts | 351° |
| 2026-05-07 10:41 | 63.71330 | 19.86102 | 6959 ft | 247 kts | 351° |
| 2026-05-07 10:41 | 63.73035 | 19.85623 | 6711 ft | 246 kts | 351° |
| 2026-05-07 10:41 | 63.74707 | 19.85151 | 6468 ft | 245 kts | 351° |
| 2026-05-07 10:41 | 63.76395 | 19.84675 | 6217 ft | 244 kts | 351° |
| 2026-05-07 10:42 | 63.78078 | 19.84200 | 5944 ft | 243 kts | 351° |
| 2026-05-07 10:42 | 63.79750 | 19.83728 | 5688 ft | 242 kts | 351° |
| 2026-05-07 10:42 | 63.81414 | 19.83257 | 5440 ft | 240 kts | 351° |
| 2026-05-07 10:42 | 63.83065 | 19.82789 | 5201 ft | 239 kts | 351° |
| 2026-05-07 10:43 | 63.84709 | 19.82369 | 4953 ft | 238 kts | 356° |
| 2026-05-07 10:43 | 63.86340 | 19.82804 | 4759 ft | 241 kts | 8° |
| 2026-05-07 10:43 | 63.87983 | 19.83504 | 4533 ft | 239 kts | 8° |
| 2026-05-07 10:43 | 63.89608 | 19.84166 | 4328 ft | 235 kts | 7° |
| 2026-05-07 10:44 | 63.91181 | 19.84803 | 4149 ft | 225 kts | 10° |
| 2026-05-07 10:44 | 63.92543 | 19.86388 | 3925 ft | 221 kts | 43° |
| 2026-05-07 10:44 | 63.93328 | 19.89287 | 3742 ft | 214 kts | 70° |
| 2026-05-07 10:44 | 63.93580 | 19.92567 | 3558 ft | 207 kts | 82° |
| 2026-05-07 10:45 | 63.93736 | 19.95755 | 3377 ft | 199 kts | 84° |
| 2026-05-07 10:45 | 63.93551 | 19.98808 | 3197 ft | 199 kts | 121° |
| 2026-05-07 10:45 | 63.92611 | 20.01055 | 3109 ft | 196 kts | 138° |
| 2026-05-07 10:45 | 63.91641 | 20.03228 | 2998 ft | 199 kts | 136° |
| 2026-05-07 10:46 | 63.90643 | 20.05348 | 2862 ft | 192 kts | 139° |
| 2026-05-07 10:46 | 63.89674 | 20.07300 | 2706 ft | 183 kts | 139° |
| 2026-05-07 10:46 | 63.88724 | 20.09197 | 2459 ft | 181 kts | 140° |
| 2026-05-07 10:46 | 63.87783 | 20.11073 | 2211 ft | 179 kts | 140° |
| 2026-05-07 10:47 | 63.86849 | 20.12939 | 1961 ft | 178 kts | 140° |
| 2026-05-07 10:47 | 63.85922 | 20.14791 | 1698 ft | 176 kts | 140° |
| 2026-05-07 10:47 | 63.85020 | 20.16593 | 1460 ft | 168 kts | 140° |
| 2026-05-07 10:47 | 63.84165 | 20.18303 | 1230 ft | 163 kts | 140° |
| 2026-05-07 10:48 | 63.83317 | 20.20001 | 1009 ft | 163 kts | 140° |
| 2026-05-07 10:48 | 63.82494 | 20.21646 | 760 ft | 154 kts | 140° |
| 2026-05-07 10:48 | 63.81718 | 20.23185 | 563 ft | 148 kts | 140° |
| 2026-05-07 10:48 | 63.80945 | 20.24722 | 354 ft | 148 kts | 139° |
| 2026-05-07 10:49 | 63.80183 | 20.26266 | 164 ft | 145 kts | 137° |
| 2026-05-07 10:49 | 63.79439 | 20.27767 | 31 ft | 137 kts | 139° |
| 2026-05-07 10:49 | 63.78876 | 20.28893 | 25 ft | 77 kts | 138° |
| 2026-05-07 10:49 | 63.78627 | 20.29391 | 26 ft | 31 kts | 139° |
| 2026-05-07 10:50 | 63.78549 | 20.29519 | 27 ft | 7 kts | 108° |
| 2026-05-07 10:50 | 63.78561 | 20.29542 | 29 ft | 3 kts | 357° |
| 2026-05-07 10:50 | 63.78596 | 20.29478 | 28 ft | 12 kts | 313° |
| 2026-05-07 10:50 | 63.78684 | 20.29282 | 27 ft | 23 kts | 317° |
| 2026-05-07 10:51 | 63.78805 | 20.29038 | 23 ft | 23 kts | 319° |
| 2026-05-07 10:51 | 63.78922 | 20.28802 | 28 ft | 22 kts | 318° |
| 2026-05-07 10:51 | 63.79040 | 20.28565 | 27 ft | 23 kts | 319° |
| 2026-05-07 10:51 | 63.79141 | 20.28403 | 27 ft | 10 kts | 7° |
| 2026-05-07 10:52 | 63.79192 | 20.28495 | 28 ft | 8 kts | 49° |
| 2026-05-07 10:52 | 63.79227 | 20.28582 | 26 ft | 6 kts | 48° |
| 2026-05-07 10:52 | 63.79240 | 20.28616 | 26 ft | 4 kts | 49° |
| 2026-05-07 10:52 | 63.79262 | 20.28675 | 28 ft | 4 kts | 49° |
| 2026-05-07 10:53 | 63.79279 | 20.28718 | 27 ft | 4 kts | 49° |
| 2026-05-07 10:53 | 63.79295 | 20.28760 | 27 ft | 3 kts | 48° |
| 2026-05-07 10:53 | 63.79306 | 20.28788 | 26 ft | 2 kts | 48° |
| 2026-05-07 10:53 | 63.79307 | 20.28790 | 26 ft | 0 kts | 48° |